Pagina principale
METAR-TAF:

METAR-TAF

Aeroporti :

Aeroporto militare Cameri

Novara, Italia

latitudine: 45-31N, longitudine: 008-40E, altezza: 178 m

Osservazione

Il bollettino è stato emesso 51 minuti fa, alle 04:55 UTC
Temperature 18°C
Umidità 94%
Pressione 1015 hPa
Visibilità 10 km o più
Nuvoloso ad un'altezza di 4000 ft

METAR: LIMN 030455Z /////KT 9999 BKN040 18/17 Q1015 RMK BKN VIS MIN 9999 BLU

Ora: 07:46 (05:46 UTC)

Previsione

Il bollettino è stato emesso 46 minuti fa, alle 05:00 UTC
Previsione valida dal 03 alle 06 UTC al 03 alle 15 UTC
Vento 6 kt da nord/nord-est
Visibilità 10 km o più
Nubi sparse ad un'altezza di 4000 ft
Temporaneamente
dal 03 alle 09 UTC al 03 alle 15 UTC
Poco nuvoloso ad un'altezza di 3000 ft, Cumulonembo.
temporale

TAF: LIMN 030500Z 0306/0315 03006KT 9999 SCT040 TEMPO 0309/0315 TS FEW030CB

Osservazioni e previsioni meteorologiche di più di 4000 aeroporti (messaggi METAR e TAF).

Le stazioni disponibili sono rappresentate dai dischi gialli e rossi sulla carta.

Puntare il mouse per vedere il nome della stazione.

Clicca sopra per visualizzare le osservazioni e previsioni meteorologiche.

Per cambiare la mappa : fare clic sui pulsanti verdi con una croce nera per ingrandire, il pulsante verde con un trattino per diminuire, o sulla freccia verde per le mappe adiacenti.


METAR-TAF: